Yakima — WCD7863 — position and weather

sailwx.info

Track history (hours):
 
Tides and Currents Weather Stations Pressure Air Temp Water Temp Dewpoint Dewpoint Depression Visibility Wind Speed Wind Dir Waves Ship Positions

Yakima

Owner: WASHINGTON, STATE OF; Dept. of Transportation, OLYMPIA, WA. More information available from US FCC via Universal Licensing System and Coast Guard Vessel Documentation Center.

Last reported at 2017-Nov-20 00:30 UTC. Time now 2017-Nov-20 04:14 UTC.
Position N 48°31' W 122°42'.

Length 117 m; draft 5.6 m.

Type: Passenger vessel. MMSI: 366772750.

Date/timePositionNaut miles runAvg speedWind from/ knotsBaromVisibWave heightAir tempDewpointWater temp
2017-Nov-20 00:30N 48°31' W 122°42'612.4
2017-Nov-20 00:00N 48°33' W 122°51'5 9.1
2017-Nov-19 23:30N 48°36' W 122°57'4 7.8
2017-Nov-19 23:00N 48°34' W 122°51'714.7
2017-Nov-19 22:30N 48°31' W 122°41'1 1.2
2017-Nov-19 22:00N 48°30' W 122°41'4 8.7
2017-Nov-19 21:31N 48°33' W 122°46'611.7
2017-Nov-19 21:00N 48°35' W 122°54'2 3.6
2017-Nov-19 20:31N 48°36' W 122°57'1 2.1
2017-Nov-19 20:00N 48°35' W 122°55'4 7.2
2017-Nov-19 19:30N 48°36' W 122°50'713.8
2017-Nov-19 19:00N 48°31' W 122°42'1 1.8
2017-Nov-19 18:31N 48°31' W 122°40'611.4
2017-Nov-19 18:01N 48°36' W 122°44'612.0
2017-Nov-19 17:30N 48°34' W 122°53'2 4.1
2017-Nov-19 17:00N 48°35' W 122°56'1 1.8
2017-Nov-19 16:30N 48°36' W 122°57'611.7
2017-Nov-19 16:00N 48°32' W 122°50'6 9.8
2017-Nov-19 15:22N 48°30' W 122°41'3 7.5
2017-Nov-19 15:01N 48°32' W 122°44'612.6
2017-Nov-19 14:30N 48°34' W 122°53'3 5.1
2017-Nov-19 14:01N 48°33' W 122°56'3 6.7
2017-Nov-19 13:30N 48°32' W 123°01'4 8.1
2017-Nov-19 13:01N 48°33' W 122°55'713.7
2017-Nov-19 12:30N 48°31' W 122°45'3 5.2
2017-Nov-19 11:55N 48°30' W 122°41'0 0.0
2017-Nov-19 11:30N 48°30' W 122°41'0 0.0
2017-Nov-19 10:18N 48°30' W 122°41'0 0.0
2017-Nov-19 09:25N 48°30' W 122°41'0 0.0
2017-Nov-19 08:43N 48°30' W 122°41'0 0.0
2017-Nov-19 08:21N 48°30' W 122°41'0 0.0
2017-Nov-19 07:55N 48°30' W 122°41'0 0.0
2017-Nov-19 07:29N 48°30' W 122°41'2 3.9
2017-Nov-19 07:00N 48°32' W 122°43'714.5
2017-Nov-19 06:31N 48°35' W 122°53'611.6
2017-Nov-19 06:00N 48°32' W 123°01'3 5.3
2017-Nov-19 05:30N 48°32' W 122°57'4 7.9
2017-Nov-19 05:00N 48°34' W 122°51'713.9
2017-Nov-19 04:30N 48°32' W 122°41'1 2.3
2017-Nov-19 03:58N 48°30' W 122°41'4 8.6
2017-Nov-19 03:30N 48°32' W 122°46'510.2
2017-Nov-19 03:00N 48°34' W 122°53'4 8.9
2017-Nov-19 02:30N 48°32' W 122°59'1 2.5
2017-Nov-19 02:01N 48°32' W 123°01'4 7.2
2017-Nov-19 01:30N 48°33' W 122°56'3 6.5
2017-Nov-19 01:00N 48°33' W 122°51'7 6.1
2017-Nov-18 23:48N 48°30' W 122°41'0 0.0
2017-Nov-18 23:27N 48°30' W 122°41'0 0.0
2017-Nov-18 23:00N 48°30' W 122°41'0 0.0
2017-Nov-18 22:30N 48°30' W 122°41'0 0.0
2017-Nov-18 21:59N 48°30' W 122°41'0 0.3
2017-Nov-18 21:30N 48°31' W 122°40'713.3
2017-Nov-18 21:01N 48°32' W 122°50'5 9.7
2017-Nov-18 20:30N 48°35' W 122°56'1 1.2
2017-Nov-18 20:00N 48°36' W 122°57'3 5.3
2017-Nov-18 19:31N 48°35' W 122°53'4 8.3
2017-Nov-18 19:00N 48°32' W 122°48'510.7
2017-Nov-18 18:31N 48°30' W 122°41'2 3.6
2017-Nov-18 18:00N 48°31' W 122°43'714.4
2017-Nov-18 17:31N 48°34' W 122°53'2 4.2
2017-Nov-18 17:00N 48°35' W 122°56'1 1.8
2017-Nov-18 16:30N 48°36' W 122°57'5 9.3
2017-Nov-18 16:01N 48°33' W 122°51'714.5
2017-Nov-18 15:30N 48°31' W 122°41'2 3.7
2017-Nov-18 15:01N 48°32' W 122°43'714.2
2017-Nov-18 14:30N 48°34' W 122°53'3 5.3
2017-Nov-18 14:00N 48°33' W 122°56'3 6.5
2017-Nov-18 13:30N 48°32' W 123°01'4 8.3
2017-Nov-18 13:00N 48°33' W 122°55'713.6
2017-Nov-18 12:30N 48°32' W 122°45'3 6.0
2017-Nov-18 12:00N 48°30' W 122°41'0 0.0
2017-Nov-18 11:30N 48°30' W 122°41'0 0.0
2017-Nov-18 11:00N 48°30' W 122°41'0 0.0
2017-Nov-18 10:30N 48°30' W 122°41'0 0.0
2017-Nov-18 10:00N 48°30' W 122°41'0 0.0
2017-Nov-18 09:29N 48°30' W 122°41'0 0.0
2017-Nov-18 09:00N 48°30' W 122°41'0 0.0
2017-Nov-18 08:30N 48°30' W 122°41'0 0.0
2017-Nov-18 08:00N 48°30' W 122°41'0 0.0
2017-Nov-18 07:30N 48°30' W 122°41'2 3.3
2017-Nov-18 07:01N 48°31' W 122°42'714.5
2017-Nov-18 06:30N 48°34' W 122°53'611.8
2017-Nov-18 06:00N 48°32' W 123°01'3 5.8
2017-Nov-18 05:30N 48°33' W 122°57'4 7.2
2017-Nov-18 05:00N 48°34' W 122°52'714.0
2017-Nov-18 04:30N 48°31' W 122°42'1 2.3
2017-Nov-18 04:00N 48°30' W 122°41'4 7.4
2017-Nov-18 03:30N 48°32' W 122°46'510.7
2017-Nov-18 03:00N 48°34' W 122°53'4 8.8
2017-Nov-18 02:30N 48°32' W 122°59'1 2.4
2017-Nov-18 02:00N 48°32' W 123°01'4 8.7
2017-Nov-18 01:30N 48°34' W 122°55'3 5.6
2017-Nov-18 01:00N 48°33' W 122°50'714.3
2017-Nov-18 00:31N 48°30' W 122°41'0 0.1
2017-Nov-17 23:51N 48°30' W 122°41'412.2
2017-Nov-17 23:30N 48°32' W 122°47'815.3
2017-Nov-17 23:00N 48°36' W 122°57'4 8.0
2017-Nov-17 22:31N 48°34' W 122°51'714.8
2017-Nov-17 22:00N 48°31' W 122°41'0 0.9
2017-Nov-17 21:30N 48°31' W 122°40'714.4
2017-Nov-17 21:00N 48°33' W 122°51'5 9.2
2017-Nov-17 20:30N 48°36' W 122°57'0 0.5
2017-Nov-17 20:00N 48°36' W 122°57'3 6.1
2017-Nov-17 19:30N 48°34' W 122°53'714.5
2017-Nov-17 19:00N 48°31' W 122°43'2 2.9
2017-Nov-17 18:27N 48°30' W 122°41'511.4
2017-Nov-17 18:00N 48°32' W 122°48'4 8.1
2017-Nov-17 17:31N 48°34' W 122°53'2 4.2
2017-Nov-17 17:01N 48°35' W 122°56'1 1.6
2017-Nov-17 16:30N 48°36' W 122°57'5 9.7
2017-Nov-17 16:00N 48°33' W 122°51'714.2
2017-Nov-17 15:30N 48°31' W 122°41'2 3.2
2017-Nov-17 15:00N 48°31' W 122°43'714.7
2017-Nov-17 14:30N 48°34' W 122°53'2 4.8
2017-Nov-17 14:00N 48°33' W 122°56'3 6.9
2017-Nov-17 13:30N 48°32' W 123°01'4 8.1
2017-Nov-17 13:00N 48°33' W 122°55'713.4
2017-Nov-17 12:30N 48°32' W 122°45'3 6.4
2017-Nov-17 12:00N 48°30' W 122°41'0 0.0
2017-Nov-17 11:05N 48°30' W 122°41'0 0.0
2017-Nov-17 11:00N 48°30' W 122°41'0 0.0
2017-Nov-17 10:28N 48°30' W 122°41'0 0.0
2017-Nov-17 10:00N 48°30' W 122°41'0 0.0
2017-Nov-17 09:20N 48°30' W 122°41'0 0.0
2017-Nov-17 08:58N 48°30' W 122°41'0 0.0
2017-Nov-17 08:28N 48°30' W 122°41'0 0.0
2017-Nov-17 08:00N 48°30' W 122°41'0 0.0
2017-Nov-17 07:30N 48°30' W 122°41'2 3.2
2017-Nov-17 07:00N 48°32' W 122°42'714.7
2017-Nov-17 06:30N 48°34' W 122°53'611.8
2017-Nov-17 06:00N 48°32' W 123°01'3 6.7
2017-Nov-17 05:30N 48°33' W 122°56'3 6.9
2017-Nov-17 05:00N 48°33' W 122°51'713.7
2017-Nov-17 04:30N 48°31' W 122°41'1 1.0
2017-Nov-17 03:50N 48°30' W 122°41'411.5
2017-Nov-17 03:30N 48°32' W 122°46'510.4
2017-Nov-17 03:00N 48°34' W 122°53'5 9.1
2017-Nov-17 02:30N 48°33' W 122°59'1 2.2
2017-Nov-17 02:00N 48°32' W 123°01'4 8.6
2017-Nov-17 01:30N 48°34' W 122°55'3 5.5
2017-Nov-17 01:01N 48°33' W 122°51'714.3
2017-Nov-17 00:30N 48°31' W 122°41'0 0.0
2017-Nov-16 23:55N 48°31' W 122°41'0 0.2
2017-Nov-16 23:30N 48°30' W 122°41'0 0.0
2017-Nov-16 22:58N 48°30' W 122°41'0 0.0
2017-Nov-16 22:28N 48°30' W 122°41'0 0.0
2017-Nov-16 21:59N 48°30' W 122°41'0 0.5
2017-Nov-16 21:30N 48°31' W 122°40'713.8
2017-Nov-16 21:00N 48°33' W 122°50'510.1
2017-Nov-16 20:30N 48°36' W 122°56'0 0.5
2017-Nov-16 20:00N 48°36' W 122°57'2 4.8
2017-Nov-16 19:30N 48°35' W 122°53'4 7.7
2017-Nov-16 19:00N 48°32' W 122°49'6 7.4
2017-Nov-16 18:12N 48°30' W 122°41'2 9.2
2017-Nov-16 18:00N 48°31' W 122°43'714.2
2017-Nov-16 17:30N 48°34' W 122°53'2 4.2
2017-Nov-16 17:00N 48°35' W 122°56'1 1.8
2017-Nov-16 16:30N 48°36' W 122°57'511.0
2017-Nov-16 16:00N 48°33' W 122°50'7 8.1
2017-Nov-16 15:12N 48°30' W 122°41'2 9.7
2017-Nov-16 15:01N 48°31' W 122°43'714.4
2017-Nov-16 14:30N 48°34' W 122°53'2 5.0
2017-Nov-16 14:01N 48°33' W 122°56'3 6.8
2017-Nov-16 13:30N 48°32' W 123°01'4 8.1
2017-Nov-16 13:00N 48°33' W 122°55'713.4
2017-Nov-16 12:30N 48°32' W 122°45'3 6.6
2017-Nov-16 12:00N 48°30' W 122°41'0 0.0
2017-Nov-16 11:29N 48°30' W 122°41'0 0.0
2017-Nov-16 11:00N 48°30' W 122°41'0 0.0
2017-Nov-16 10:30N 48°30' W 122°41'0 0.0
2017-Nov-16 09:59N 48°30' W 122°41'0 0.0
2017-Nov-16 09:30N 48°30' W 122°41'0 0.0
2017-Nov-16 09:00N 48°30' W 122°41'0 0.0
2017-Nov-16 08:30N 48°30' W 122°41'0 0.0
2017-Nov-16 08:00N 48°30' W 122°41'0 0.0
2017-Nov-16 07:30N 48°30' W 122°41'2 4.7
2017-Nov-16 07:00N 48°31' W 122°44'714.1
2017-Nov-16 06:30N 48°35' W 122°53'510.9
2017-Nov-16 06:00N 48°32' W 123°01'4 7.3
2017-Nov-16 05:30N 48°33' W 122°55'3 6.1
2017-Nov-16 05:01N 48°33' W 122°51'714.1
2017-Nov-16 04:31N 48°31' W 122°41'1 1.5
2017-Nov-16 03:53N 48°30' W 122°41'411.1
2017-Nov-16 03:30N 48°32' W 122°47'5 9.9
2017-Nov-16 03:00N 48°34' W 122°53'510.0
2017-Nov-16 02:31N 48°33' W 123°00'1 1.5
2017-Nov-16 02:01N 48°32' W 123°01'510.4
2017-Nov-16 01:31N 48°34' W 122°54'3 6.0
2017-Nov-16 01:00N 48°33' W 122°50'712.8
2017-Nov-16 00:30N 48°30' W 122°41'0 0.0
2017-Nov-16 00:00N 48°30' W 122°41'0 0.0
2017-Nov-15 23:30N 48°30' W 122°41'0 0.0
2017-Nov-15 22:43N 48°30' W 122°41'0 0.0
2017-Nov-15 22:29N 48°30' W 122°41'0 0.0
2017-Nov-15 22:00N 48°30' W 122°41'0 0.8
2017-Nov-15 21:30N 48°31' W 122°40'713.8
2017-Nov-15 21:01N 48°33' W 122°50'5 9.7
2017-Nov-15 20:31N 48°36' W 122°56'0 0.7
2017-Nov-15 20:00N 48°36' W 122°57'3 5.6
2017-Nov-15 19:30N 48°34' W 122°53'510.5
2017-Nov-15 19:00N 48°31' W 122°46'4 6.7
2017-Nov-15 18:25N 48°30' W 122°41'2 5.8
2017-Nov-15 18:00N 48°31' W 122°44'713.0
2017-Nov-15 17:30N 48°34' W 122°53'2 4.2
2017-Nov-15 17:00N 48°35' W 122°56'1 1.8
2017-Nov-15 16:30N 48°36' W 122°57'611.6
2017-Nov-15 16:01N 48°32' W 122°50'612.5
2017-Nov-15 15:30N 48°30' W 122°41'2 4.5
2017-Nov-15 15:00N 48°31' W 122°44'713.6
2017-Nov-15 14:30N 48°34' W 122°53'3 5.3
2017-Nov-15 14:00N 48°33' W 122°56'3 6.2
2017-Nov-15 13:30N 48°32' W 123°01'4 7.4
2017-Nov-15 13:00N 48°33' W 122°55'613.0
2017-Nov-15 12:30N 48°31' W 122°46'4 7.3
2017-Nov-15 12:00N 48°30' W 122°41'0 0.0
2017-Nov-15 11:29N 48°30' W 122°41'0 0.0
2017-Nov-15 11:00N 48°30' W 122°41'0 0.0
2017-Nov-15 10:29N 48°30' W 122°41'0 0.0
2017-Nov-15 10:00N 48°30' W 122°41'0 0.0
2017-Nov-15 09:24N 48°30' W 122°41'0 0.0
2017-Nov-15 09:00N 48°30' W 122°41'0 0.0
2017-Nov-15 08:30N 48°30' W 122°41'0 0.0
2017-Nov-15 08:00N 48°30' W 122°41'0 0.3
2017-Nov-15 07:30N 48°31' W 122°40'612.3
2017-Nov-15 07:00N 48°32' W 122°50'611.7
2017-Nov-15 06:30N 48°33' W 122°58'1 2.9
2017-Nov-15 06:01N 48°33' W 123°00'5 9.3
2017-Nov-15 05:30N 48°34' W 122°54'3 5.8
2017-Nov-15 05:00N 48°33' W 122°50'611.8
2017-Nov-15 04:31N 48°32' W 122°41'1 2.0
2017-Nov-15 04:01N 48°31' W 122°40'5 9.9
2017-Nov-15 03:30N 48°32' W 122°48'4 8.1
2017-Nov-15 03:00N 48°34' W 122°53'510.2
2017-Nov-15 02:30N 48°33' W 122°60'1 1.6
2017-Nov-15 02:00N 48°32' W 123°01'510.9
2017-Nov-15 01:30N 48°35' W 122°53'3 6.7
2017-Nov-15 01:00N 48°32' W 122°50'611.7
2017-Nov-15 00:29N 48°30' W 122°41'0 0.0
2017-Nov-15 00:00N 48°30' W 122°41'0 0.0
2017-Nov-14 23:28N 48°30' W 122°41'0 0.0
2017-Nov-14 22:59N 48°30' W 122°41'0 0.0
2017-Nov-14 22:28N 48°30' W 122°41'0 0.0
2017-Nov-14 22:00N 48°30' W 122°41'611.6
2017-Nov-14 21:30N 48°32' W 122°49'610.9
2017-Nov-14 21:00N 48°35' W 122°56'1 1.8
2017-Nov-14 20:30N 48°36' W 122°57'3 5.8
2017-Nov-14 20:00N 48°34' W 122°53'612.6
2017-Nov-14 19:30N 48°36' W 122°44'611.0
2017-Nov-14 18:56N 48°30' W 122°41'1 1.7
2017-Nov-14 18:30N 48°31' W 122°40'611.9
2017-Nov-14 18:01N 48°37' W 122°43'713.4
2017-Nov-14 17:31N 48°34' W 122°53'2 4.5
2017-Nov-14 17:00N 48°35' W 122°56'1 1.5
2017-Nov-14 16:30N 48°36' W 122°57'611.5
2017-Nov-14 16:00N 48°36' W 122°48'711.1
2017-Nov-14 15:21N 48°30' W 122°41'2 5.2
2017-Nov-14 15:00N 48°31' W 122°43'714.3
2017-Nov-14 14:30N 48°34' W 122°53'2 4.6
2017-Nov-14 14:00N 48°33' W 122°56'4 7.0
2017-Nov-14 13:30N 48°32' W 123°01'4 8.3
2017-Nov-14 13:01N 48°33' W 122°55'713.1
2017-Nov-14 12:30N 48°31' W 122°45'3 6.7
2017-Nov-14 12:00N 48°30' W 122°41'0 0.0
2017-Nov-14 11:30N 48°30' W 122°41'0 0.0
2017-Nov-14 11:00N 48°30' W 122°41'0 0.0
2017-Nov-14 10:30N 48°30' W 122°41'0 0.0
2017-Nov-14 10:00N 48°30' W 122°41'0 0.0
2017-Nov-14 09:30N 48°30' W 122°41'0 0.0
2017-Nov-14 09:00N 48°30' W 122°41'0 0.0
2017-Nov-14 08:30N 48°30' W 122°41'0 0.0
2017-Nov-14 08:00N 48°30' W 122°41'0 0.0
2017-Nov-14 07:30N 48°30' W 122°41'2 3.9
2017-Nov-14 07:00N 48°32' W 122°43'714.4
2017-Nov-14 06:30N 48°35' W 122°53'611.8
2017-Nov-14 06:00N 48°32' W 123°01'3 6.1
2017-Nov-14 05:30N 48°33' W 122°56'4 7.1
2017-Nov-14 05:00N 48°34' W 122°51'714.3
2017-Nov-14 04:30N 48°31' W 122°42'1 2.0
2017-Nov-14 04:00N 48°30' W 122°41'4 8.2
2017-Nov-14 03:30N 48°32' W 122°46'510.1
2017-Nov-14 03:00N 48°34' W 122°53'5 9.3
2017-Nov-14 02:30N 48°33' W 122°59'0 0.7
2017-Nov-14 02:00N 48°33' W 123°00'5 9.5
2017-Nov-14 01:29N 48°34' W 122°53'5 9.4
2017-Nov-14 01:00N 48°34' W 122°46'510.2
2017-Nov-14 00:30N 48°31' W 122°41'0 0.2
2017-Nov-14 00:00N 48°30' W 122°41'0 0.0
2017-Nov-13 23:28N 48°30' W 122°41'0 0.0
2017-Nov-13 22:59N 48°30' W 122°41'0 0.0
2017-Nov-13 22:30N 48°30' W 122°41'0 0.0
2017-Nov-13 22:00N 48°30' W 122°41'13 0.6
2017-Nov-13 02:00N 48°33' W 122°60'3 6.9
2017-Nov-13 01:30N 48°34' W 122°55'3 6.2
2017-Nov-13 01:00N 48°33' W 122°50'712.1
2017-Nov-13 00:27N 48°30' W 122°41'1 2.5
2017-Nov-13 00:00N 48°31' W 122°42'714.3
2017-Nov-12 23:31N 48°34' W 122°52'4 7.6
2017-Nov-12 23:00N 48°36' W 122°57'3 6.9
2017-Nov-12 22:31N 48°34' W 122°52'714.4
2017-Nov-12 22:01N 48°31' W 122°42'1 2.5
2017-Nov-12 21:30N 48°30' W 122°41'613.0
2017-Nov-12 21:01N 48°32' W 122°50'510.1
2017-Nov-12 20:30N 48°36' W 122°56'0 0.9
2017-Nov-12 20:00N 48°36' W 122°57'2 4.2
2017-Nov-12 19:30N 48°35' W 122°54'4 8.7
2017-Nov-12 19:00N 48°32' W 122°49'610.3
2017-Nov-12 18:27N 48°30' W 122°41'2 5.2
2017-Nov-12 18:00N 48°32' W 122°44'713.4
2017-Nov-12 17:31N 48°34' W 122°53'2 4.3
2017-Nov-12 17:00N 48°35' W 122°56'1 1.6
2017-Nov-12 16:30N 48°36' W 122°57'510.0
2017-Nov-12 16:00N 48°33' W 122°50'713.8
2017-Nov-12 15:30N 48°30' W 122°41'2 4.2
2017-Nov-12 15:00N 48°32' W 122°43'714.0
2017-Nov-12 14:31N 48°34' W 122°53'3 5.4
2017-Nov-12 14:00N 48°33' W 122°56'3 6.4
2017-Nov-12 13:30N 48°32' W 123°01'4 7.8
2017-Nov-12 13:00N 48°33' W 122°55'612.7
2017-Nov-12 12:30N 48°32' W 122°46'4 7.4
2017-Nov-12 12:00N 48°30' W 122°41'0 0.0
2017-Nov-12 11:29N 48°30' W 122°41'0 0.0
2017-Nov-12 11:00N 48°30' W 122°41'0 0.0
2017-Nov-12 10:30N 48°30' W 122°41'0 0.0
2017-Nov-12 10:00N 48°30' W 122°41'0 0.0
2017-Nov-12 09:29N 48°30' W 122°41'0 0.0
2017-Nov-12 08:59N 48°30' W 122°41'0 0.0
2017-Nov-12 08:30N 48°30' W 122°41'0 0.0
2017-Nov-12 08:00N 48°30' W 122°41'0 0.0
2017-Nov-12 07:30N 48°30' W 122°41'4 7.8
2017-Nov-12 07:00N 48°32' W 122°46'612.9
2017-Nov-12 06:30N 48°33' W 122°56'4 7.0
2017-Nov-12 06:00N 48°32' W 123°01'3 5.4
2017-Nov-12 05:31N 48°32' W 122°57'4 7.4
2017-Nov-12 05:00N 48°34' W 122°52'815.2
2017-Nov-12 04:31N 48°31' W 122°42'1 1.4
2017-Nov-12 03:53N 48°30' W 122°41'411.9
2017-Nov-12 03:30N 48°32' W 122°47'5 9.3
2017-Nov-12 03:00N 48°34' W 122°53'5 9.2
2017-Nov-12 02:30N 48°33' W 122°59'1 2.1
2017-Nov-12 02:00N 48°32' W 123°01'4 8.3
2017-Nov-12 01:30N 48°33' W 122°55'3 6.6
2017-Nov-12 01:00N 48°33' W 122°50'712.7
2017-Nov-12 00:29N 48°30' W 122°41'0 0.0
2017-Nov-11 23:59N 48°30' W 122°41'0 0.0
2017-Nov-11 23:29N 48°30' W 122°41'0 0.0
2017-Nov-11 22:55N 48°30' W 122°41'0 0.0
2017-Nov-11 22:23N 48°30' W 122°41'0 0.0
2017-Nov-11 21:55N 48°30' W 122°41'0 0.1
2017-Nov-11 21:30N 48°30' W 122°41'713.3
2017-Nov-11 21:00N 48°32' W 122°50'5 9.7
2017-Nov-11 20:30N 48°35' W 122°56'1 1.2
2017-Nov-11 20:00N 48°36' W 122°57'3 5.7
2017-Nov-11 19:30N 48°34' W 122°53'612.8
2017-Nov-11 19:00N 48°31' W 122°44'3 4.6
2017-Nov-11 18:26N 48°30' W 122°41'3 7.2
2017-Nov-11 18:00N 48°32' W 122°45'612.0
2017-Nov-11 17:30N 48°34' W 122°53'2 4.2
2017-Nov-11 17:01N 48°35' W 122°56'1 1.8
2017-Nov-11 16:30N 48°36' W 122°57'5 9.6
2017-Nov-11 16:00N 48°33' W 122°51'713.7
2017-Nov-11 15:29N 48°30' W 122°41'2 4.6
2017-Nov-11 15:00N 48°31' W 122°44'713.6
2017-Nov-11 14:30N 48°34' W 122°53'3 5.9
2017-Nov-11 14:01N 48°32' W 122°56'3 6.0
2017-Nov-11 13:30N 48°32' W 123°01'5 9.3
2017-Nov-11 13:01N 48°34' W 122°54'713.4
2017-Nov-11 12:31N 48°32' W 122°45'3 6.0
2017-Nov-11 12:00N 48°30' W 122°41'0 0.0
2017-Nov-11 11:30N 48°30' W 122°41'0 0.0
2017-Nov-11 11:00N 48°30' W 122°41'0 0.0
2017-Nov-11 10:30N 48°30' W 122°41'0 0.0
2017-Nov-11 09:53N 48°30' W 122°41'0 0.0
2017-Nov-11 09:14N 48°30' W 122°41'0 0.0
2017-Nov-11 08:58N 48°30' W 122°41'0 0.0
2017-Nov-11 08:25N 48°30' W 122°41'0 0.0
2017-Nov-11 07:58N 48°30' W 122°41'0 0.7
2017-Nov-11 07:30N 48°31' W 122°40'510.4
2017-Nov-11 07:00N 48°32' W 122°48'5 9.4
2017-Nov-11 06:30N 48°34' W 122°54'510.5
2017-Nov-11 06:01N 48°32' W 123°01'3 6.8
2017-Nov-11 05:30N 48°33' W 122°56'3 5.9
2017-Nov-11 05:00N 48°34' W 122°52'814.6
2017-Nov-11 04:29N 48°31' W 122°41'1 1.1
2017-Nov-11 03:52N 48°30' W 122°41'411.2
2017-Nov-11 03:31N 48°32' W 122°46'510.1
2017-Nov-11 03:00N 48°34' W 122°53'5 9.5
2017-Nov-11 02:30N 48°33' W 122°60'1 1.7
2017-Nov-11 02:00N 48°32' W 123°01'4 8.7
2017-Nov-11 01:30N 48°34' W 122°55'3 5.7
2017-Nov-11 01:01N 48°33' W 122°50'714.1
2017-Nov-11 00:30N 48°31' W 122°41'0 0.1
2017-Nov-10 23:59N 48°31' W 122°40'714.1
2017-Nov-10 23:30N 48°33' W 122°50'510.5
2017-Nov-10 23:00N 48°36' W 122°57'5 9.5
2017-Nov-10 22:30N 48°33' W 122°51'714.2
2017-Nov-10 22:00N 48°31' W 122°41'0 0.1
2017-Nov-10 21:31N 48°30' W 122°41'713.3
2017-Nov-10 21:00N 48°32' W 122°50'510.0
2017-Nov-10 20:30N 48°35' W 122°56'0 0.8
2017-Nov-10 20:00N 48°36' W 122°57'3 5.8
2017-Nov-10 19:30N 48°34' W 122°53'510.1
2017-Nov-10 18:59N 48°32' W 122°46'4 4.6
2017-Nov-10 18:10N 48°30' W 122°41'211.2
2017-Nov-10 17:58N 48°31' W 122°44'810.0
2017-Nov-10 17:08N 48°35' W 122°55'1 5.4
2017-Nov-10 17:01N 48°35' W 122°56'1 1.8
2017-Nov-10 16:30N 48°36' W 122°57'714.1
2017-Nov-10 16:00N 48°32' W 122°48'5 6.6
2017-Nov-10 15:14N 48°30' W 122°41'210.4
2017-Nov-10 15:00N 48°32' W 122°44'713.1
2017-Nov-10 14:30N 48°34' W 122°53'3 5.4
2017-Nov-10 14:01N 48°33' W 122°56'3 6.3
2017-Nov-10 13:30N 48°32' W 123°01'5 9.4
2017-Nov-10 13:00N 48°34' W 122°54'713.5
2017-Nov-10 12:30N 48°31' W 122°45'3 5.8
2017-Nov-10 12:00N 48°30' W 122°41'0 0.1
2017-Nov-10 11:30N 48°30' W 122°41'0 0.0
2017-Nov-10 11:00N 48°30' W 122°41'0 0.0
2017-Nov-10 10:30N 48°30' W 122°41'0 0.0
2017-Nov-10 10:00N 48°30' W 122°41'0 0.0
2017-Nov-10 09:30N 48°30' W 122°41'0 0.0
2017-Nov-10 08:59N 48°30' W 122°41'0 0.0
2017-Nov-10 07:59N 48°30' W 122°41'0 0.0
2017-Nov-10 05:27N 48°30' W 122°41'0 0.0
2017-Nov-10 03:57N 48°30' W 122°41'612.9
2017-Nov-10 03:30N 48°32' W 122°49'3 6.9
2017-Nov-10 03:01N 48°34' W 122°52'5 9.8
2017-Nov-10 02:30N 48°33' W 122°59'1 2.2
2017-Nov-10 02:01N 48°32' W 123°01'611.3
2017-Nov-10 01:31N 48°34' W 122°53'3 6.1
2017-Nov-10 01:00N 48°32' W 122°50'  
Track history (hours):
 
Tides and Currents Weather Stations Pressure Air Temp Water Temp Dewpoint Dewpoint Depression Visibility Wind Speed Wind Dir Waves Ship Positions

Yakima

Owner: WASHINGTON, STATE OF; Dept. of Transportation, OLYMPIA, WA. More information available from US FCC via Universal Licensing System and Coast Guard Vessel Documentation Center.

Last reported at 2017-Nov-20 00:30 UTC. Time now 2017-Nov-20 04:14 UTC.
Position N 48°31' W 122°42'.

Length 117 m; draft 5.6 m.

Type: Passenger vessel. MMSI: 366772750.

Date/timePositionNaut miles runAvg speedWind from/ knotsBaromVisibWave heightAir tempDewpointWater temp
2017-Nov-20 00:30N 48°31' W 122°42'612.4
2017-Nov-20 00:00N 48°33' W 122°51'5 9.1
2017-Nov-19 23:30N 48°36' W 122°57'4 7.8
2017-Nov-19 23:00N 48°34' W 122°51'714.7
2017-Nov-19 22:30N 48°31' W 122°41'1 1.2
2017-Nov-19 22:00N 48°30' W 122°41'4 8.7
2017-Nov-19 21:31N 48°33' W 122°46'611.7
2017-Nov-19 21:00N 48°35' W 122°54'2 3.6
2017-Nov-19 20:31N 48°36' W 122°57'1 2.1
2017-Nov-19 20:00N 48°35' W 122°55'4 7.2
2017-Nov-19 19:30N 48°36' W 122°50'713.8
2017-Nov-19 19:00N 48°31' W 122°42'1 1.8
2017-Nov-19 18:31N 48°31' W 122°40'611.4
2017-Nov-19 18:01N 48°36' W 122°44'612.0
2017-Nov-19 17:30N 48°34' W 122°53'2 4.1
2017-Nov-19 17:00N 48°35' W 122°56'1 1.8
2017-Nov-19 16:30N 48°36' W 122°57'611.7
2017-Nov-19 16:00N 48°32' W 122°50'6 9.8
2017-Nov-19 15:22N 48°30' W 122°41'3 7.5
2017-Nov-19 15:01N 48°32' W 122°44'612.6
2017-Nov-19 14:30N 48°34' W 122°53'3 5.1
2017-Nov-19 14:01N 48°33' W 122°56'3 6.7
2017-Nov-19 13:30N 48°32' W 123°01'4 8.1
2017-Nov-19 13:01N 48°33' W 122°55'713.7
2017-Nov-19 12:30N 48°31' W 122°45'3 5.2
2017-Nov-19 11:55N 48°30' W 122°41'0 0.0
2017-Nov-19 11:30N 48°30' W 122°41'0 0.0
2017-Nov-19 10:18N 48°30' W 122°41'0 0.0
2017-Nov-19 09:25N 48°30' W 122°41'0 0.0
2017-Nov-19 08:43N 48°30' W 122°41'0 0.0
2017-Nov-19 08:21N 48°30' W 122°41'0 0.0
2017-Nov-19 07:55N 48°30' W 122°41'0 0.0
2017-Nov-19 07:29N 48°30' W 122°41'2 3.9
2017-Nov-19 07:00N 48°32' W 122°43'714.5
2017-Nov-19 06:31N 48°35' W 122°53'611.6
2017-Nov-19 06:00N 48°32' W 123°01'3 5.3
2017-Nov-19 05:30N 48°32' W 122°57'4 7.9
2017-Nov-19 05:00N 48°34' W 122°51'713.9
2017-Nov-19 04:30N 48°32' W 122°41'1 2.3
2017-Nov-19 03:58N 48°30' W 122°41'4 8.6
2017-Nov-19 03:30N 48°32' W 122°46'510.2
2017-Nov-19 03:00N 48°34' W 122°53'4 8.9
2017-Nov-19 02:30N 48°32' W 122°59'1 2.5
2017-Nov-19 02:01N 48°32' W 123°01'4 7.2
2017-Nov-19 01:30N 48°33' W 122°56'3 6.5
2017-Nov-19 01:00N 48°33' W 122°51'7 6.1
2017-Nov-18 23:48N 48°30' W 122°41'0 0.0
2017-Nov-18 23:27N 48°30' W 122°41'0 0.0
2017-Nov-18 23:00N 48°30' W 122°41'0 0.0
2017-Nov-18 22:30N 48°30' W 122°41'0 0.0
2017-Nov-18 21:59N 48°30' W 122°41'0 0.3
2017-Nov-18 21:30N 48°31' W 122°40'713.3
2017-Nov-18 21:01N 48°32' W 122°50'5 9.7
2017-Nov-18 20:30N 48°35' W 122°56'1 1.2
2017-Nov-18 20:00N 48°36' W 122°57'3 5.3
2017-Nov-18 19:31N 48°35' W 122°53'4 8.3
2017-Nov-18 19:00N 48°32' W 122°48'510.7
2017-Nov-18 18:31N 48°30' W 122°41'2 3.6
2017-Nov-18 18:00N 48°31' W 122°43'714.4
2017-Nov-18 17:31N 48°34' W 122°53'2 4.2
2017-Nov-18 17:00N 48°35' W 122°56'1 1.8
2017-Nov-18 16:30N 48°36' W 122°57'5 9.3
2017-Nov-18 16:01N 48°33' W 122°51'714.5
2017-Nov-18 15:30N 48°31' W 122°41'2 3.7
2017-Nov-18 15:01N 48°32' W 122°43'714.2
2017-Nov-18 14:30N 48°34' W 122°53'3 5.3
2017-Nov-18 14:00N 48°33' W 122°56'3 6.5
2017-Nov-18 13:30N 48°32' W 123°01'4 8.3
2017-Nov-18 13:00N 48°33' W 122°55'713.6
2017-Nov-18 12:30N 48°32' W 122°45'3 6.0
2017-Nov-18 12:00N 48°30' W 122°41'0 0.0
2017-Nov-18 11:30N 48°30' W 122°41'0 0.0
2017-Nov-18 11:00N 48°30' W 122°41'0 0.0
2017-Nov-18 10:30N 48°30' W 122°41'0 0.0
2017-Nov-18 10:00N 48°30' W 122°41'0 0.0
2017-Nov-18 09:29N 48°30' W 122°41'0 0.0
2017-Nov-18 09:00N 48°30' W 122°41'0 0.0
2017-Nov-18 08:30N 48°30' W 122°41'0 0.0
2017-Nov-18 08:00N 48°30' W 122°41'0 0.0
2017-Nov-18 07:30N 48°30' W 122°41'2 3.3
2017-Nov-18 07:01N 48°31' W 122°42'714.5
2017-Nov-18 06:30N 48°34' W 122°53'611.8
2017-Nov-18 06:00N 48°32' W 123°01'3 5.8
2017-Nov-18 05:30N 48°33' W 122°57'4 7.2
2017-Nov-18 05:00N 48°34' W 122°52'714.0
2017-Nov-18 04:30N 48°31' W 122°42'1 2.3
2017-Nov-18 04:00N 48°30' W 122°41'4 7.4
2017-Nov-18 03:30N 48°32' W 122°46'510.7
2017-Nov-18 03:00N 48°34' W 122°53'4 8.8
2017-Nov-18 02:30N 48°32' W 122°59'1 2.4
2017-Nov-18 02:00N 48°32' W 123°01'4 8.7
2017-Nov-18 01:30N 48°34' W 122°55'3 5.6
2017-Nov-18 01:00N 48°33' W 122°50'714.3
2017-Nov-18 00:31N 48°30' W 122°41'0 0.1
2017-Nov-17 23:51N 48°30' W 122°41'412.2
2017-Nov-17 23:30N 48°32' W 122°47'815.3
2017-Nov-17 23:00N 48°36' W 122°57'4 8.0
2017-Nov-17 22:31N 48°34' W 122°51'714.8
2017-Nov-17 22:00N 48°31' W 122°41'0 0.9
2017-Nov-17 21:30N 48°31' W 122°40'714.4
2017-Nov-17 21:00N 48°33' W 122°51'5 9.2
2017-Nov-17 20:30N 48°36' W 122°57'0 0.5
2017-Nov-17 20:00N 48°36' W 122°57'3 6.1
2017-Nov-17 19:30N 48°34' W 122°53'714.5
2017-Nov-17 19:00N 48°31' W 122°43'2 2.9
2017-Nov-17 18:27N 48°30' W 122°41'511.4
2017-Nov-17 18:00N 48°32' W 122°48'4 8.1
2017-Nov-17 17:31N 48°34' W 122°53'2 4.2
2017-Nov-17 17:01N 48°35' W 122°56'1 1.6
2017-Nov-17 16:30N 48°36' W 122°57'5 9.7
2017-Nov-17 16:00N 48°33' W 122°51'714.2
2017-Nov-17 15:30N 48°31' W 122°41'2 3.2
2017-Nov-17 15:00N 48°31' W 122°43'714.7
2017-Nov-17 14:30N 48°34' W 122°53'2 4.8
2017-Nov-17 14:00N 48°33' W 122°56'3 6.9
2017-Nov-17 13:30N 48°32' W 123°01'4 8.1
2017-Nov-17 13:00N 48°33' W 122°55'713.4
2017-Nov-17 12:30N 48°32' W 122°45'3 6.4
2017-Nov-17 12:00N 48°30' W 122°41'0 0.0
2017-Nov-17 11:05N 48°30' W 122°41'0 0.0
2017-Nov-17 11:00N 48°30' W 122°41'0 0.0
2017-Nov-17 10:28N 48°30' W 122°41'0 0.0
2017-Nov-17 10:00N 48°30' W 122°41'0 0.0
2017-Nov-17 09:20N 48°30' W 122°41'0 0.0
2017-Nov-17 08:58N 48°30' W 122°41'0 0.0
2017-Nov-17 08:28N 48°30' W 122°41'0 0.0
2017-Nov-17 08:00N 48°30' W 122°41'0 0.0
2017-Nov-17 07:30N 48°30' W 122°41'2 3.2
2017-Nov-17 07:00N 48°32' W 122°42'714.7
2017-Nov-17 06:30N 48°34' W 122°53'611.8
2017-Nov-17 06:00N 48°32' W 123°01'3 6.7
2017-Nov-17 05:30N 48°33' W 122°56'3 6.9
2017-Nov-17 05:00N 48°33' W 122°51'713.7
2017-Nov-17 04:30N 48°31' W 122°41'1 1.0
2017-Nov-17 03:50N 48°30' W 122°41'411.5
2017-Nov-17 03:30N 48°32' W 122°46'510.4
2017-Nov-17 03:00N 48°34' W 122°53'5 9.1
2017-Nov-17 02:30N 48°33' W 122°59'1 2.2
2017-Nov-17 02:00N 48°32' W 123°01'4 8.6
2017-Nov-17 01:30N 48°34' W 122°55'3 5.5
2017-Nov-17 01:01N 48°33' W 122°51'714.3
2017-Nov-17 00:30N 48°31' W 122°41'0 0.0
2017-Nov-16 23:55N 48°31' W 122°41'0 0.2
2017-Nov-16 23:30N 48°30' W 122°41'0 0.0
2017-Nov-16 22:58N 48°30' W 122°41'0 0.0
2017-Nov-16 22:28N 48°30' W 122°41'0 0.0
2017-Nov-16 21:59N 48°30' W 122°41'0 0.5
2017-Nov-16 21:30N 48°31' W 122°40'713.8
2017-Nov-16 21:00N 48°33' W 122°50'510.1
2017-Nov-16 20:30N 48°36' W 122°56'0 0.5
2017-Nov-16 20:00N 48°36' W 122°57'2 4.8
2017-Nov-16 19:30N 48°35' W 122°53'4 7.7
2017-Nov-16 19:00N 48°32' W 122°49'6 7.4
2017-Nov-16 18:12N 48°30' W 122°41'2 9.2
2017-Nov-16 18:00N 48°31' W 122°43'714.2
2017-Nov-16 17:30N 48°34' W 122°53'2 4.2
2017-Nov-16 17:00N 48°35' W 122°56'1 1.8
2017-Nov-16 16:30N 48°36' W 122°57'511.0
2017-Nov-16 16:00N 48°33' W 122°50'7 8.1
2017-Nov-16 15:12N 48°30' W 122°41'2 9.7
2017-Nov-16 15:01N 48°31' W 122°43'714.4
2017-Nov-16 14:30N 48°34' W 122°53'2 5.0
2017-Nov-16 14:01N 48°33' W 122°56'3 6.8
2017-Nov-16 13:30N 48°32' W 123°01'4 8.1
2017-Nov-16 13:00N 48°33' W 122°55'713.4
2017-Nov-16 12:30N 48°32' W 122°45'3 6.6
2017-Nov-16 12:00N 48°30' W 122°41'0 0.0
2017-Nov-16 11:29N 48°30' W 122°41'0 0.0
2017-Nov-16 11:00N 48°30' W 122°41'0 0.0
2017-Nov-16 10:30N 48°30' W 122°41'0 0.0
2017-Nov-16 09:59N 48°30' W 122°41'0 0.0
2017-Nov-16 09:30N 48°30' W 122°41'0 0.0
2017-Nov-16 09:00N 48°30' W 122°41'0 0.0
2017-Nov-16 08:30N 48°30' W 122°41'0 0.0
2017-Nov-16 08:00N 48°30' W 122°41'0 0.0
2017-Nov-16 07:30N 48°30' W 122°41'2 4.7
2017-Nov-16 07:00N 48°31' W 122°44'714.1
2017-Nov-16 06:30N 48°35' W 122°53'510.9
2017-Nov-16 06:00N 48°32' W 123°01'4 7.3
2017-Nov-16 05:30N 48°33' W 122°55'3 6.1
2017-Nov-16 05:01N 48°33' W 122°51'714.1
2017-Nov-16 04:31N 48°31' W 122°41'1 1.5
2017-Nov-16 03:53N 48°30' W 122°41'411.1
2017-Nov-16 03:30N 48°32' W 122°47'5 9.9
2017-Nov-16 03:00N 48°34' W 122°53'510.0
2017-Nov-16 02:31N 48°33' W 123°00'1 1.5
2017-Nov-16 02:01N 48°32' W 123°01'510.4
2017-Nov-16 01:31N 48°34' W 122°54'3 6.0
2017-Nov-16 01:00N 48°33' W 122°50'712.8
2017-Nov-16 00:30N 48°30' W 122°41'0 0.0
2017-Nov-16 00:00N 48°30' W 122°41'0 0.0
2017-Nov-15 23:30N 48°30' W 122°41'0 0.0
2017-Nov-15 22:43N 48°30' W 122°41'0 0.0
2017-Nov-15 22:29N 48°30' W 122°41'0 0.0
2017-Nov-15 22:00N 48°30' W 122°41'0 0.8
2017-Nov-15 21:30N 48°31' W 122°40'713.8
2017-Nov-15 21:01N 48°33' W 122°50'5 9.7
2017-Nov-15 20:31N 48°36' W 122°56'0 0.7
2017-Nov-15 20:00N 48°36' W 122°57'3 5.6
2017-Nov-15 19:30N 48°34' W 122°53'510.5
2017-Nov-15 19:00N 48°31' W 122°46'4 6.7
2017-Nov-15 18:25N 48°30' W 122°41'2 5.8
2017-Nov-15 18:00N 48°31' W 122°44'713.0
2017-Nov-15 17:30N 48°34' W 122°53'2 4.2
2017-Nov-15 17:00N 48°35' W 122°56'1 1.8
2017-Nov-15 16:30N 48°36' W 122°57'611.6
2017-Nov-15 16:01N 48°32' W 122°50'612.5
2017-Nov-15 15:30N 48°30' W 122°41'2 4.5
2017-Nov-15 15:00N 48°31' W 122°44'713.6
2017-Nov-15 14:30N 48°34' W 122°53'3 5.3
2017-Nov-15 14:00N 48°33' W 122°56'3 6.2
2017-Nov-15 13:30N 48°32' W 123°01'4 7.4
2017-Nov-15 13:00N 48°33' W 122°55'613.0
2017-Nov-15 12:30N 48°31' W 122°46'4 7.3
2017-Nov-15 12:00N 48°30' W 122°41'0 0.0
2017-Nov-15 11:29N 48°30' W 122°41'0 0.0
2017-Nov-15 11:00N 48°30' W 122°41'0 0.0
2017-Nov-15 10:29N 48°30' W 122°41'0 0.0
2017-Nov-15 10:00N 48°30' W 122°41'0 0.0
2017-Nov-15 09:24N 48°30' W 122°41'0 0.0
2017-Nov-15 09:00N 48°30' W 122°41'0 0.0
2017-Nov-15 08:30N 48°30' W 122°41'0 0.0
2017-Nov-15 08:00N 48°30' W 122°41'0 0.3
2017-Nov-15 07:30N 48°31' W 122°40'612.3
2017-Nov-15 07:00N 48°32' W 122°50'611.7
2017-Nov-15 06:30N 48°33' W 122°58'1 2.9
2017-Nov-15 06:01N 48°33' W 123°00'5 9.3
2017-Nov-15 05:30N 48°34' W 122°54'3 5.8
2017-Nov-15 05:00N 48°33' W 122°50'611.8
2017-Nov-15 04:31N 48°32' W 122°41'1 2.0
2017-Nov-15 04:01N 48°31' W 122°40'5 9.9
2017-Nov-15 03:30N 48°32' W 122°48'4 8.1
2017-Nov-15 03:00N 48°34' W 122°53'510.2
2017-Nov-15 02:30N 48°33' W 122°60'1 1.6
2017-Nov-15 02:00N 48°32' W 123°01'510.9
2017-Nov-15 01:30N 48°35' W 122°53'3 6.7
2017-Nov-15 01:00N 48°32' W 122°50'611.7
2017-Nov-15 00:29N 48°30' W 122°41'0 0.0
2017-Nov-15 00:00N 48°30' W 122°41'0 0.0
2017-Nov-14 23:28N 48°30' W 122°41'0 0.0
2017-Nov-14 22:59N 48°30' W 122°41'0 0.0
2017-Nov-14 22:28N 48°30' W 122°41'0 0.0
2017-Nov-14 22:00N 48°30' W 122°41'611.6
2017-Nov-14 21:30N 48°32' W 122°49'610.9
2017-Nov-14 21:00N 48°35' W 122°56'1 1.8
2017-Nov-14 20:30N 48°36' W 122°57'3 5.8
2017-Nov-14 20:00N 48°34' W 122°53'612.6
2017-Nov-14 19:30N 48°36' W 122°44'611.0
2017-Nov-14 18:56N 48°30' W 122°41'1 1.7
2017-Nov-14 18:30N 48°31' W 122°40'611.9
2017-Nov-14 18:01N 48°37' W 122°43'713.4
2017-Nov-14 17:31N 48°34' W 122°53'2 4.5
2017-Nov-14 17:00N 48°35' W 122°56'1 1.5
2017-Nov-14 16:30N 48°36' W 122°57'611.5
2017-Nov-14 16:00N 48°36' W 122°48'711.1
2017-Nov-14 15:21N 48°30' W 122°41'2 5.2
2017-Nov-14 15:00N 48°31' W 122°43'714.3
2017-Nov-14 14:30N 48°34' W 122°53'2 4.6
2017-Nov-14 14:00N 48°33' W 122°56'4 7.0
2017-Nov-14 13:30N 48°32' W 123°01'4 8.3
2017-Nov-14 13:01N 48°33' W 122°55'713.1
2017-Nov-14 12:30N 48°31' W 122°45'3 6.7
2017-Nov-14 12:00N 48°30' W 122°41'0 0.0
2017-Nov-14 11:30N 48°30' W 122°41'0 0.0
2017-Nov-14 11:00N 48°30' W 122°41'0 0.0
2017-Nov-14 10:30N 48°30' W 122°41'0 0.0
2017-Nov-14 10:00N 48°30' W 122°41'0 0.0
2017-Nov-14 09:30N 48°30' W 122°41'0 0.0
2017-Nov-14 09:00N 48°30' W 122°41'0 0.0
2017-Nov-14 08:30N 48°30' W 122°41'0 0.0
2017-Nov-14 08:00N 48°30' W 122°41'0 0.0
2017-Nov-14 07:30N 48°30' W 122°41'2 3.9
2017-Nov-14 07:00N 48°32' W 122°43'714.4
2017-Nov-14 06:30N 48°35' W 122°53'611.8
2017-Nov-14 06:00N 48°32' W 123°01'3 6.1
2017-Nov-14 05:30N 48°33' W 122°56'4 7.1
2017-Nov-14 05:00N 48°34' W 122°51'714.3
2017-Nov-14 04:30N 48°31' W 122°42'1 2.0
2017-Nov-14 04:00N 48°30' W 122°41'4 8.2
2017-Nov-14 03:30N 48°32' W 122°46'510.1
2017-Nov-14 03:00N 48°34' W 122°53'5 9.3
2017-Nov-14 02:30N 48°33' W 122°59'0 0.7
2017-Nov-14 02:00N 48°33' W 123°00'5 9.5
2017-Nov-14 01:29N 48°34' W 122°53'5 9.4
2017-Nov-14 01:00N 48°34' W 122°46'510.2
2017-Nov-14 00:30N 48°31' W 122°41'0 0.2
2017-Nov-14 00:00N 48°30' W 122°41'0 0.0
2017-Nov-13 23:28N 48°30' W 122°41'0 0.0
2017-Nov-13 22:59N 48°30' W 122°41'0 0.0
2017-Nov-13 22:30N 48°30' W 122°41'0 0.0
2017-Nov-13 22:00N 48°30' W 122°41'13 0.6
2017-Nov-13 02:00N 48°33' W 122°60'3 6.9
2017-Nov-13 01:30N 48°34' W 122°55'3 6.2
2017-Nov-13 01:00N 48°33' W 122°50'712.1
2017-Nov-13 00:27N 48°30' W 122°41'1 2.5
2017-Nov-13 00:00N 48°31' W 122°42'714.3
2017-Nov-12 23:31N 48°34' W 122°52'4 7.6
2017-Nov-12 23:00N 48°36' W 122°57'3 6.9
2017-Nov-12 22:31N 48°34' W 122°52'714.4
2017-Nov-12 22:01N 48°31' W 122°42'1 2.5
2017-Nov-12 21:30N 48°30' W 122°41'613.0
2017-Nov-12 21:01N 48°32' W 122°50'510.1
2017-Nov-12 20:30N 48°36' W 122°56'0 0.9
2017-Nov-12 20:00N 48°36' W 122°57'2 4.2
2017-Nov-12 19:30N 48°35' W 122°54'4 8.7
2017-Nov-12 19:00N 48°32' W 122°49'610.3
2017-Nov-12 18:27N 48°30' W 122°41'2 5.2
2017-Nov-12 18:00N 48°32' W 122°44'713.4
2017-Nov-12 17:31N 48°34' W 122°53'2 4.3
2017-Nov-12 17:00N 48°35' W 122°56'1 1.6
2017-Nov-12 16:30N 48°36' W 122°57'510.0
2017-Nov-12 16:00N 48°33' W 122°50'713.8
2017-Nov-12 15:30N 48°30' W 122°41'2 4.2
2017-Nov-12 15:00N 48°32' W 122°43'714.0
2017-Nov-12 14:31N 48°34' W 122°53'3 5.4
2017-Nov-12 14:00N 48°33' W 122°56'3 6.4
2017-Nov-12 13:30N 48°32' W 123°01'4 7.8
2017-Nov-12 13:00N 48°33' W 122°55'612.7
2017-Nov-12 12:30N 48°32' W 122°46'4 7.4
2017-Nov-12 12:00N 48°30' W 122°41'0 0.0
2017-Nov-12 11:29N 48°30' W 122°41'0 0.0
2017-Nov-12 11:00N 48°30' W 122°41'0 0.0
2017-Nov-12 10:30N 48°30' W 122°41'0 0.0
2017-Nov-12 10:00N 48°30' W 122°41'0 0.0
2017-Nov-12 09:29N 48°30' W 122°41'0 0.0
2017-Nov-12 08:59N 48°30' W 122°41'0 0.0
2017-Nov-12 08:30N 48°30' W 122°41'0 0.0
2017-Nov-12 08:00N 48°30' W 122°41'0 0.0
2017-Nov-12 07:30N 48°30' W 122°41'4 7.8
2017-Nov-12 07:00N 48°32' W 122°46'612.9
2017-Nov-12 06:30N 48°33' W 122°56'4 7.0
2017-Nov-12 06:00N 48°32' W 123°01'3 5.4
2017-Nov-12 05:31N 48°32' W 122°57'4 7.4
2017-Nov-12 05:00N 48°34' W 122°52'815.2
2017-Nov-12 04:31N 48°31' W 122°42'1 1.4
2017-Nov-12 03:53N 48°30' W 122°41'411.9
2017-Nov-12 03:30N 48°32' W 122°47'5 9.3
2017-Nov-12 03:00N 48°34' W 122°53'5 9.2
2017-Nov-12 02:30N 48°33' W 122°59'1 2.1
2017-Nov-12 02:00N 48°32' W 123°01'4 8.3
2017-Nov-12 01:30N 48°33' W 122°55'3 6.6
2017-Nov-12 01:00N 48°33' W 122°50'712.7
2017-Nov-12 00:29N 48°30' W 122°41'0 0.0
2017-Nov-11 23:59N 48°30' W 122°41'0 0.0
2017-Nov-11 23:29N 48°30' W 122°41'0 0.0
2017-Nov-11 22:55N 48°30' W 122°41'0 0.0
2017-Nov-11 22:23N 48°30' W 122°41'0 0.0
2017-Nov-11 21:55N 48°30' W 122°41'0 0.1
2017-Nov-11 21:30N 48°30' W 122°41'713.3
2017-Nov-11 21:00N 48°32' W 122°50'5 9.7
2017-Nov-11 20:30N 48°35' W 122°56'1 1.2
2017-Nov-11 20:00N 48°36' W 122°57'3 5.7
2017-Nov-11 19:30N 48°34' W 122°53'612.8
2017-Nov-11 19:00N 48°31' W 122°44'3 4.6
2017-Nov-11 18:26N 48°30' W 122°41'3 7.2
2017-Nov-11 18:00N 48°32' W 122°45'612.0
2017-Nov-11 17:30N 48°34' W 122°53'2 4.2
2017-Nov-11 17:01N 48°35' W 122°56'1 1.8
2017-Nov-11 16:30N 48°36' W 122°57'5 9.6
2017-Nov-11 16:00N 48°33' W 122°51'713.7
2017-Nov-11 15:29N 48°30' W 122°41'2 4.6
2017-Nov-11 15:00N 48°31' W 122°44'713.6
2017-Nov-11 14:30N 48°34' W 122°53'3 5.9
2017-Nov-11 14:01N 48°32' W 122°56'3 6.0
2017-Nov-11 13:30N 48°32' W 123°01'5 9.3
2017-Nov-11 13:01N 48°34' W 122°54'713.4
2017-Nov-11 12:31N 48°32' W 122°45'3 6.0
2017-Nov-11 12:00N 48°30' W 122°41'0 0.0
2017-Nov-11 11:30N 48°30' W 122°41'0 0.0
2017-Nov-11 11:00N 48°30' W 122°41'0 0.0
2017-Nov-11 10:30N 48°30' W 122°41'0 0.0
2017-Nov-11 09:53N 48°30' W 122°41'0 0.0
2017-Nov-11 09:14N 48°30' W 122°41'0 0.0
2017-Nov-11 08:58N 48°30' W 122°41'0 0.0
2017-Nov-11 08:25N 48°30' W 122°41'0 0.0
2017-Nov-11 07:58N 48°30' W 122°41'0 0.7
2017-Nov-11 07:30N 48°31' W 122°40'510.4
2017-Nov-11 07:00N 48°32' W 122°48'5 9.4
2017-Nov-11 06:30N 48°34' W 122°54'510.5
2017-Nov-11 06:01N 48°32' W 123°01'3 6.8
2017-Nov-11 05:30N 48°33' W 122°56'3 5.9
2017-Nov-11 05:00N 48°34' W 122°52'814.6
2017-Nov-11 04:29N 48°31' W 122°41'1 1.1
2017-Nov-11 03:52N 48°30' W 122°41'411.2
2017-Nov-11 03:31N 48°32' W 122°46'510.1
2017-Nov-11 03:00N 48°34' W 122°53'5 9.5
2017-Nov-11 02:30N 48°33' W 122°60'1 1.7
2017-Nov-11 02:00N 48°32' W 123°01'4 8.7
2017-Nov-11 01:30N 48°34' W 122°55'3 5.7
2017-Nov-11 01:01N 48°33' W 122°50'714.1
2017-Nov-11 00:30N 48°31' W 122°41'0 0.1
2017-Nov-10 23:59N 48°31' W 122°40'714.1
2017-Nov-10 23:30N 48°33' W 122°50'510.5
2017-Nov-10 23:00N 48°36' W 122°57'5 9.5
2017-Nov-10 22:30N 48°33' W 122°51'714.2
2017-Nov-10 22:00N 48°31' W 122°41'0 0.1
2017-Nov-10 21:31N 48°30' W 122°41'713.3
2017-Nov-10 21:00N 48°32' W 122°50'510.0
2017-Nov-10 20:30N 48°35' W 122°56'0 0.8
2017-Nov-10 20:00N 48°36' W 122°57'3 5.8
2017-Nov-10 19:30N 48°34' W 122°53'510.1
2017-Nov-10 18:59N 48°32' W 122°46'4 4.6
2017-Nov-10 18:10N 48°30' W 122°41'211.2
2017-Nov-10 17:58N 48°31' W 122°44'810.0
2017-Nov-10 17:08N 48°35' W 122°55'1 5.4
2017-Nov-10 17:01N 48°35' W 122°56'1 1.8
2017-Nov-10 16:30N 48°36' W 122°57'714.1
2017-Nov-10 16:00N 48°32' W 122°48'5 6.6
2017-Nov-10 15:14N 48°30' W 122°41'210.4
2017-Nov-10 15:00N 48°32' W 122°44'713.1
2017-Nov-10 14:30N 48°34' W 122°53'3 5.4
2017-Nov-10 14:01N 48°33' W 122°56'3 6.3
2017-Nov-10 13:30N 48°32' W 123°01'5 9.4
2017-Nov-10 13:00N 48°34' W 122°54'713.5
2017-Nov-10 12:30N 48°31' W 122°45'3 5.8
2017-Nov-10 12:00N 48°30' W 122°41'0 0.1
2017-Nov-10 11:30N 48°30' W 122°41'0 0.0
2017-Nov-10 11:00N 48°30' W 122°41'0 0.0
2017-Nov-10 10:30N 48°30' W 122°41'0 0.0
2017-Nov-10 10:00N 48°30' W 122°41'0 0.0
2017-Nov-10 09:30N 48°30' W 122°41'0 0.0
2017-Nov-10 08:59N 48°30' W 122°41'0 0.0
2017-Nov-10 07:59N 48°30' W 122°41'0 0.0
2017-Nov-10 05:27N 48°30' W 122°41'0 0.0
2017-Nov-10 03:57N 48°30' W 122°41'612.9
2017-Nov-10 03:30N 48°32' W 122°49'3 6.9
2017-Nov-10 03:01N 48°34' W 122°52'5 9.8
2017-Nov-10 02:30N 48°33' W 122°59'1 2.2
2017-Nov-10 02:01N 48°32' W 123°01'611.3
2017-Nov-10 01:31N 48°34' W 122°53'3 6.1
2017-Nov-10 01:00N 48°32' W 122°50'  

Dump ship's entire track history